createdAt,value
2019-04-04T00:01:43.637Z,10.13
2019-04-04T00:05:50.465Z,9.77
2019-04-04T00:09:57.349Z,10.83
2019-04-04T00:14:04.198Z,9.10
2019-04-04T00:18:10.960Z,9.67
2019-04-04T00:22:17.891Z,10.50
2019-04-04T00:26:24.711Z,11.30
2019-04-04T00:30:32.851Z,11.17
2019-04-04T00:34:39.573Z,10.87
2019-04-04T00:38:46.471Z,11.47
2019-04-04T00:42:53.292Z,12.97
2019-04-04T00:47:01.836Z,13.13
2019-04-04T00:51:08.709Z,14.27
2019-04-04T00:55:15.906Z,15.93
2019-04-04T00:59:23.673Z,16.50
2019-04-04T01:03:30.725Z,15.77
2019-04-04T01:07:37.724Z,16.90
2019-04-04T01:11:45.266Z,18.63
2019-04-04T01:15:51.949Z,17.17
2019-04-04T01:19:59.479Z,16.70
2019-04-04T01:24:06.266Z,16.97
2019-04-04T01:28:13.044Z,17.57
2019-04-04T01:32:22.668Z,17.43
2019-04-04T01:36:30.458Z,18.47
2019-04-04T01:40:37.400Z,18.20
2019-04-04T01:44:45.237Z,16.20
2019-04-04T01:48:51.951Z,17.63
2019-04-04T01:52:59.382Z,17.30
2019-04-04T01:57:08.122Z,18.23
2019-04-04T02:01:16.606Z,17.47
2019-04-04T02:05:26.808Z,19.27
2019-04-04T02:09:34.605Z,19.17
2019-04-04T02:13:40.883Z,18.63
2019-04-04T02:17:48.295Z,20.27
2019-04-04T02:21:55.043Z,18.67
2019-04-04T02:26:04.904Z,19.90
2019-04-04T02:30:15.208Z,20.13
2019-04-04T02:34:20.251Z,18.77
2019-04-04T02:38:28.125Z,20.57
2019-04-04T02:42:35.426Z,20.07
2019-04-04T02:46:45.520Z,20.23
2019-04-04T02:50:51.100Z,21.37
2019-04-04T02:54:58.592Z,21.60
2019-04-04T02:59:05.532Z,20.13
2019-04-04T03:03:12.279Z,20.83
2019-04-04T03:07:18.944Z,20.13
2019-04-04T03:11:30.533Z,20.77
2019-04-04T03:15:41.084Z,20.80
2019-04-04T03:19:46.244Z,22.17
2019-04-04T03:23:53.777Z,21.47
2019-04-04T03:28:01.734Z,23.50
2019-04-04T03:32:14.385Z,23.63
2019-04-04T03:36:20.240Z,23.33
2019-04-04T03:40:27.093Z,21.73
2019-04-04T03:44:33.788Z,22.60
2019-04-04T03:48:40.579Z,24.27
2019-04-04T03:52:47.301Z,22.93
2019-04-04T03:56:54.029Z,22.80
2019-04-04T04:01:01.682Z,24.07
2019-04-04T04:05:34.016Z,25.10
2019-04-04T04:09:37.559Z,24.13
2019-04-04T04:13:48.912Z,25.50
2019-04-04T04:17:52.631Z,25.33
2019-04-04T04:21:59.333Z,24.97
2019-04-04T04:26:09.325Z,25.80
2019-04-04T04:30:14.954Z,25.10
2019-04-04T04:34:21.645Z,25.67
2019-04-04T04:38:28.445Z,26.40
2019-04-04T04:42:35.227Z,28.17
2019-04-04T04:46:41.939Z,25.87
2019-04-04T04:50:48.767Z,27.83
2019-04-04T04:54:55.708Z,26.70
2019-04-04T04:59:02.578Z,26.87
2019-04-04T05:03:10.409Z,27.17
2019-04-04T05:07:17.115Z,26.97
2019-04-04T05:11:23.843Z,28.10
2019-04-04T05:15:32.440Z,26.97
2019-04-04T05:19:39.032Z,27.10
2019-04-04T05:23:47.002Z,27.63
2019-04-04T05:27:54.272Z,29.10
2019-04-04T05:32:00.952Z,29.50
2019-04-04T05:36:07.678Z,29.33
2019-04-04T05:40:16.051Z,29.23
2019-04-04T05:44:22.731Z,26.63
2019-04-04T05:48:29.716Z,28.13
2019-04-04T05:52:36.577Z,29.67
2019-04-04T05:56:44.733Z,28.60
2019-04-04T06:00:51.940Z,27.87
2019-04-04T06:04:58.705Z,26.93
2019-04-04T06:09:07.587Z,29.17
2019-04-04T06:13:14.262Z,27.07
2019-04-04T06:17:21.866Z,26.87
2019-04-04T06:21:28.594Z,27.90
2019-04-04T06:25:36.008Z,26.73
2019-04-04T06:29:42.699Z,26.37
2019-04-04T06:33:49.418Z,27.57
2019-04-04T06:37:56.257Z,25.50
2019-04-04T06:42:03.952Z,24.73
2019-04-04T06:46:11.006Z,26.00
2019-04-04T06:50:17.725Z,24.93
2019-04-04T06:54:25.688Z,28.17
2019-04-04T06:58:32.820Z,28.17
2019-04-04T07:02:39.512Z,26.43
2019-04-04T07:06:46.216Z,25.20
2019-04-04T07:10:58.201Z,24.13
2019-04-04T07:15:02.360Z,22.90
2019-04-04T07:19:09.162Z,22.70
2019-04-04T07:23:16.842Z,22.57
2019-04-04T07:27:24.570Z,21.00
2019-04-04T07:31:33.435Z,20.47
2019-04-04T07:35:39.624Z,19.27
2019-04-04T07:39:46.419Z,19.90
2019-04-04T07:43:53.181Z,19.50
2019-04-04T07:47:59.796Z,19.73
2019-04-04T07:52:08.440Z,20.40
2019-04-04T07:56:15.185Z,18.43
2019-04-04T08:00:21.904Z,17.53
2019-04-04T08:04:28.598Z,18.73
2019-04-04T08:08:35.262Z,18.10
2019-04-04T08:12:41.954Z,16.97
2019-04-04T08:16:48.726Z,17.07
2019-04-04T08:20:55.636Z,15.97
2019-04-04T08:25:03.609Z,14.80
2019-04-04T08:29:10.475Z,13.37
2019-04-04T08:33:17.451Z,13.93
2019-04-04T08:37:24.140Z,12.57
2019-04-04T08:41:30.823Z,14.70
2019-04-04T08:45:37.487Z,13.33
2019-04-04T08:49:44.300Z,14.30
2019-04-04T08:53:53.836Z,13.50
2019-04-04T08:58:00.567Z,13.93
2019-04-04T09:02:07.282Z,15.57
2019-04-04T09:06:14.026Z,15.30
2019-04-04T09:10:20.922Z,12.70
2019-04-04T09:14:27.764Z,11.97
2019-04-04T09:18:34.681Z,12.73
2019-04-04T09:22:41.609Z,10.83
2019-04-04T09:26:48.535Z,10.97
2019-04-04T09:30:55.535Z,11.00
2019-04-04T09:35:02.496Z,10.67
2019-04-04T09:39:10.413Z,10.73
2019-04-04T09:43:17.220Z,9.30
2019-04-04T09:47:24.377Z,10.40
2019-04-04T09:51:31.256Z,11.13
2019-04-04T09:55:38.295Z,9.87
2019-04-04T09:59:45.187Z,9.90
2019-04-04T10:03:53.068Z,9.60
2019-04-04T10:07:59.787Z,9.07
2019-04-04T10:12:06.639Z,9.57
2019-04-04T10:16:13.361Z,9.23
2019-04-04T10:20:20.136Z,8.67
2019-04-04T10:24:26.935Z,8.70
2019-04-04T10:28:33.853Z,8.30
2019-04-04T10:32:41.808Z,7.30
2019-04-04T10:36:49.923Z,7.53
2019-04-04T10:40:56.707Z,7.30
2019-04-04T10:45:03.571Z,7.80
2019-04-04T10:49:11.098Z,8.27
2019-04-04T10:53:18.074Z,7.63
2019-04-04T10:57:24.772Z,7.03
2019-04-04T11:01:31.717Z,7.93
2019-04-04T11:05:38.572Z,7.30
2019-04-04T11:09:45.425Z,7.13
2019-04-04T11:13:52.258Z,7.17
2019-04-04T11:17:59.238Z,6.47
2019-04-04T11:22:06.247Z,6.37
2019-04-04T11:26:13.123Z,7.00
2019-04-04T11:30:21.812Z,6.40
2019-04-04T11:34:28.800Z,7.33
2019-04-04T11:38:35.570Z,7.20
2019-04-04T11:42:42.548Z,7.47
2019-04-04T11:46:49.465Z,7.17
2019-04-04T11:50:56.545Z,7.20
2019-04-04T11:55:03.845Z,6.50
2019-04-04T11:59:10.582Z,6.83
2019-04-04T12:03:17.335Z,6.60
2019-04-04T12:07:24.229Z,7.43
2019-04-04T12:11:31.052Z,6.80
2019-04-04T12:15:37.854Z,6.20
2019-04-04T12:19:44.581Z,7.13
2019-04-04T12:23:51.766Z,6.67
2019-04-04T12:27:59.092Z,6.63
2019-04-04T12:32:05.809Z,6.60
2019-04-04T12:36:24.105Z,6.20
2019-04-04T12:40:21.463Z,6.53
2019-04-04T12:44:28.374Z,6.00
2019-04-04T12:48:35.202Z,6.00
2019-04-04T12:52:42.024Z,6.53
2019-04-04T12:56:49.034Z,6.17
2019-04-04T13:00:55.824Z,6.33
2019-04-04T13:05:02.628Z,5.87
2019-04-04T13:09:10.375Z,6.37
2019-04-04T13:13:17.137Z,5.97
2019-04-04T13:17:23.960Z,6.13
2019-04-04T13:21:30.607Z,5.73
2019-04-04T13:25:37.304Z,5.30
2019-04-04T13:29:43.966Z,5.20
2019-04-04T13:33:50.729Z,5.30
2019-04-04T13:37:57.426Z,5.93
2019-04-04T13:42:04.130Z,6.10
2019-04-04T13:46:11.218Z,5.73
2019-04-04T13:50:20.453Z,6.40
2019-04-04T13:54:26.737Z,6.10
2019-04-04T13:58:33.680Z,5.93
2019-04-04T14:02:40.411Z,6.53
2019-04-04T14:06:47.088Z,6.00
2019-04-04T14:10:58.333Z,6.07
2019-04-04T14:15:02.224Z,6.70
2019-04-04T14:19:09.045Z,5.87
2019-04-04T14:23:16.062Z,5.60
2019-04-04T14:27:22.752Z,5.47
2019-04-04T14:31:29.434Z,6.37
2019-04-04T14:35:36.086Z,5.60
2019-04-04T14:39:42.816Z,4.63
2019-04-04T14:43:49.605Z,5.17
2019-04-04T14:47:56.293Z,5.13
2019-04-04T14:52:03.052Z,4.77
2019-04-04T14:56:09.758Z,4.80
2019-04-04T15:00:18.297Z,4.93
2019-04-04T15:04:24.948Z,4.93
2019-04-04T15:08:31.737Z,4.70
2019-04-04T15:12:40.681Z,4.80
2019-04-04T15:16:48.889Z,4.87
2019-04-04T15:20:57.005Z,4.13
2019-04-04T15:25:03.889Z,3.70
2019-04-04T15:29:10.893Z,3.87
2019-04-04T15:33:17.993Z,3.77
2019-04-04T15:37:26.186Z,3.83
2019-04-04T15:41:37.319Z,9.53
2019-04-04T15:45:42.926Z,3.47
2019-04-04T15:49:50.179Z,3.60
2019-04-04T15:53:57.782Z,5.80
2019-04-04T15:58:04.594Z,4.70
2019-04-04T16:02:17.312Z,3.53
2019-04-04T16:06:25.394Z,2.80
2019-04-04T16:10:32.315Z,3.00
2019-04-04T16:14:39.167Z,3.13
2019-04-04T16:18:48.823Z,3.00
2019-04-04T16:22:57.936Z,3.10
2019-04-04T16:27:04.711Z,3.80
2019-04-04T16:31:12.620Z,3.40
2019-04-04T16:35:19.411Z,5.60
2019-04-04T16:39:26.134Z,4.37
2019-04-04T16:43:33.040Z,4.40
2019-04-04T16:47:39.807Z,5.00
2019-04-04T16:51:48.272Z,5.87
2019-04-04T16:55:55.270Z,4.87
2019-04-04T17:00:02.578Z,5.87
2019-04-04T17:04:09.480Z,4.53
2019-04-04T17:08:16.278Z,5.40
2019-04-04T17:12:23.183Z,5.87
2019-04-04T17:16:30.356Z,5.13
2019-04-04T17:20:38.778Z,5.73
2019-04-04T17:24:45.494Z,5.97
2019-04-04T17:28:52.760Z,5.47
2019-04-04T17:33:00.000Z,5.90
2019-04-04T17:37:07.590Z,6.10
2019-04-04T17:41:14.533Z,5.40
2019-04-04T17:45:23.145Z,6.20
2019-04-04T17:49:30.697Z,5.43
2019-04-04T17:53:39.892Z,7.43
2019-04-04T17:57:46.963Z,6.40
2019-04-04T18:01:58.412Z,6.57
2019-04-04T18:06:06.013Z,6.77
2019-04-04T18:10:20.051Z,7.07
2019-04-04T18:14:33.002Z,6.00
2019-04-04T18:18:39.797Z,5.60
2019-04-04T18:22:46.736Z,5.80
2019-04-04T18:26:54.880Z,5.70
2019-04-04T18:31:01.687Z,5.40
2019-04-04T18:35:10.658Z,5.80
2019-04-04T18:39:26.372Z,5.70
2019-04-04T18:43:27.630Z,5.30
2019-04-04T18:47:34.447Z,6.27
2019-04-04T18:51:41.487Z,7.97
2019-04-04T18:55:48.251Z,6.00
2019-04-04T18:59:58.280Z,6.47
2019-04-04T19:04:05.195Z,7.00
2019-04-04T19:08:12.108Z,5.73
2019-04-04T19:12:18.923Z,6.43
2019-04-04T19:16:26.063Z,10.27
2019-04-04T19:20:36.123Z,7.03
2019-04-04T19:24:44.587Z,5.70
2019-04-04T19:28:57.410Z,7.13
2019-04-04T19:33:04.849Z,8.30
2019-04-04T19:37:12.208Z,7.47
2019-04-04T19:41:19.802Z,7.57
2019-04-04T19:45:27.220Z,6.73
2019-04-04T19:49:34.148Z,7.77
2019-04-04T19:53:41.122Z,8.20
2019-04-04T19:57:49.313Z,7.23
2019-04-04T20:01:56.387Z,8.20
2019-04-04T20:06:03.360Z,7.77
2019-04-04T20:10:10.847Z,7.80
2019-04-04T20:14:18.234Z,7.70
2019-04-04T20:18:25.321Z,8.57
2019-04-04T20:22:32.887Z,10.03
2019-04-04T20:26:40.510Z,9.67
2019-04-04T20:30:49.282Z,9.63
2019-04-04T20:34:56.415Z,9.60
2019-04-04T20:39:04.712Z,9.80
2019-04-04T20:43:14.261Z,10.53
2019-04-04T20:47:21.018Z,10.27
2019-04-04T20:51:27.852Z,11.40
2019-04-04T20:55:34.657Z,11.00
2019-04-04T20:59:47.884Z,10.27
2019-04-04T21:03:54.559Z,11.07
2019-04-04T21:08:02.467Z,11.07
2019-04-04T21:12:11.306Z,11.23
2019-04-04T21:16:18.847Z,11.13
2019-04-04T21:20:26.082Z,11.70
2019-04-04T21:24:32.895Z,11.50
2019-04-04T21:28:39.641Z,11.30
2019-04-04T21:32:46.442Z,11.33
2019-04-04T21:36:53.405Z,10.97
2019-04-04T21:41:00.931Z,10.53
2019-04-04T21:45:08.129Z,10.47
2019-04-04T21:49:15.036Z,10.30
2019-04-04T21:53:23.438Z,9.40
2019-04-04T21:57:30.120Z,9.17
2019-04-04T22:01:36.900Z,8.97
2019-04-04T22:05:44.907Z,8.00
2019-04-04T22:09:51.643Z,7.83
2019-04-04T22:13:58.484Z,7.83
2019-04-04T22:18:05.471Z,7.03
2019-04-04T22:22:12.154Z,7.47
2019-04-04T22:26:18.905Z,6.77
2019-04-04T22:30:25.753Z,7.00
2019-04-04T22:34:33.191Z,7.03
2019-04-04T22:38:39.851Z,6.63
2019-04-04T22:42:49.092Z,6.80
2019-04-04T22:46:55.958Z,6.57
2019-04-04T22:51:02.611Z,7.83
2019-04-04T22:55:10.400Z,5.77
2019-04-04T22:59:17.276Z,7.17
2019-04-04T23:03:27.227Z,5.33
2019-04-04T23:07:34.417Z,4.90
2019-04-04T23:11:45.440Z,5.67
2019-04-04T23:15:52.671Z,6.27
2019-04-04T23:20:01.426Z,5.80
2019-04-04T23:24:08.422Z,5.50
2019-04-04T23:28:15.189Z,6.27
2019-04-04T23:32:22.081Z,5.17
2019-04-04T23:36:34.793Z,6.13
2019-04-04T23:40:37.242Z,5.37
2019-04-04T23:44:43.914Z,5.83
2019-04-04T23:48:50.653Z,6.00
2019-04-04T23:52:57.350Z,5.80
2019-04-04T23:57:04.036Z,5.90
